Time;durP1;ratioP1;P1;durP2;ratioP2;P2;SDS_P1;SDS_P2;PMS_P1;PMS_P2;Temp;Humidity;BMP_temperature;BMP_pressure;BME280_temperature;BME280_humidity;BME280_pressure;Samples;Min_cycle;Max_cycle;Signal;HPM_P1;HPM_P2
2022/06/23 00:03:34;;;;;;;12.97;7.70;;;;;;;22.44;59.95;97640.41;8413385;28;20571;-78
2022/06/23 00:07:39;;;;;;;12.47;7.67;;;;;;;22.36;60.31;97638.53;8414164;28;20555;-78
2022/06/23 00:11:49;;;;;;;13.00;7.47;;;;;;;22.35;59.70;97644.81;8414403;28;20245;-78
2022/06/23 00:15:54;;;;;;;12.63;8.03;;;;;;;22.28;59.66;97638.47;8413957;28;20226;-78
2022/06/23 00:20:00;;;;;;;12.10;7.80;;;;;;;22.21;60.26;97632.91;8413877;28;20532;-78
2022/06/23 00:24:06;;;;;;;13.43;7.87;;;;;;;22.23;60.11;97638.84;8413795;28;20227;-78
2022/06/23 00:28:16;;;;;;;11.23;7.87;;;;;;;22.17;59.62;97634.19;8413744;28;20231;-78
2022/06/23 00:32:19;;;;;;;13.40;8.53;;;;;;;22.12;59.95;97620.59;8413815;28;20234;-79
2022/06/23 00:36:30;;;;;;;9.47;7.93;;;;;;;22.11;59.95;97634.78;8413271;28;20238;-77
2022/06/23 00:40:33;;;;;;;12.37;8.30;;;;;;;22.05;60.31;97627.47;8413509;28;20517;-78
2022/06/23 00:44:44;;;;;;;10.10;8.43;;;;;;;22.01;60.32;97631.41;8414711;28;20626;-78
2022/06/23 00:48:50;;;;;;;10.43;7.73;;;;;;;21.96;60.29;97633.63;8419864;28;20230;-79
2022/06/23 00:52:57;;;;;;;13.53;8.00;;;;;;;21.98;59.69;97635.13;8420062;28;20412;-79
2022/06/23 00:57:07;;;;;;;9.60;8.20;;;;;;;21.90;59.76;97634.25;8419951;28;20238;-79
2022/06/23 01:01:18;;;;;;;10.33;7.67;;;;;;;21.88;59.58;97634.38;8419801;28;20246;-79
2022/06/23 01:05:24;;;;;;;10.47;8.53;;;;;;;21.79;60.19;97630.81;8419180;28;20238;-79
2022/06/23 01:09:32;;;;;;;15.90;8.37;;;;;;;21.78;60.28;97621.25;8418827;28;20238;-78
2022/06/23 01:13:39;;;;;;;10.27;8.53;;;;;;;21.74;60.78;97633.06;8419144;28;20230;-79
2022/06/23 01:17:48;;;;;;;12.30;8.87;;;;;;;21.78;60.33;97644.97;8419089;28;20239;-79
2022/06/23 01:21:54;;;;;;;13.93;8.20;;;;;;;21.77;60.23;97647.75;8418872;28;20235;-79
2022/06/23 01:26:51;;;;;;;12.13;8.80;;;;;;;21.72;60.69;97642.09;8418935;28;20230;-79
2022/06/23 01:31:00;;;;;;;11.53;9.03;;;;;;;21.75;60.62;97647.06;8386757;28;20231;-79
2022/06/23 01:35:09;;;;;;;10.83;8.50;;;;;;;21.78;60.40;97662.56;8418565;28;20231;-79
2022/06/23 01:39:15;;;;;;;10.67;8.30;;;;;;;21.73;60.50;97659.56;8418355;28;20517;-79
2022/06/23 01:43:20;;;;;;;11.53;8.10;;;;;;;21.72;60.45;97666.63;8418482;28;20234;-79
2022/06/23 01:47:29;;;;;;;11.33;8.60;;;;;;;21.66;60.38;97657.50;8417338;28;20233;-78
2022/06/23 01:51:41;;;;;;;14.07;8.43;;;;;;;21.58;60.69;97654.75;8417731;28;20551;-78
2022/06/23 01:55:55;;;;;;;11.60;8.57;;;;;;;21.61;60.87;97662.38;8416507;28;20227;-78
2022/06/23 02:00:03;;;;;;;11.30;8.50;;;;;;;21.63;60.61;97663.06;8417647;28;20260;-78
2022/06/23 02:04:14;;;;;;;15.77;10.23;;;;;;;21.71;61.07;97661.53;8417308;28;20254;-78
2022/06/23 02:13:19;;;;;;;13.60;11.17;;;;;;;21.61;62.19;97658.91;8416602;28;20229;-78
2022/06/23 02:17:32;;;;;;;13.77;11.47;;;;;;;21.58;62.18;97659.22;8416354;28;20304;-77
2022/06/23 02:21:43;;;;;;;16.53;12.23;;;;;;;21.52;62.58;97665.06;8416607;28;20280;-79
2022/06/23 02:25:54;;;;;;;14.83;12.33;;;;;;;21.53;62.68;97651.72;8416468;28;20316;-79
2022/06/23 02:30:00;;;;;;;15.83;12.43;;;;;;;21.61;62.90;97653.63;8416584;28;20231;-79
2022/06/23 02:34:07;;;;;;;16.77;13.30;;;;;;;21.57;62.66;97655.75;8416315;28;20229;-79
2022/06/23 02:38:13;;;;;;;16.27;12.63;;;;;;;21.56;62.90;97653.25;8416149;28;20414;-79
2022/06/23 02:42:25;;;;;;;15.67;12.90;;;;;;;21.52;62.77;97652.72;8416113;28;20631;-79
2022/06/23 02:46:55;;;;;;;14.60;13.10;;;;;;;21.50;62.90;97657.28;8415455;28;20297;-78
2022/06/23 02:51:09;;;;;;;16.33;13.10;;;;;;;21.47;62.71;97655.75;8415881;28;20233;-79
2022/06/23 02:55:38;;;;;;;15.50;11.50;;;;;;;21.50;62.10;97659.94;8416036;28;20233;-80
2022/06/23 02:59:45;;;;;;;13.90;11.33;;;;;;;21.41;62.56;97658.13;8415481;28;20234;-79
2022/06/23 03:03:51;;;;;;;12.80;10.67;;;;;;;21.42;61.74;97654.53;8415499;28;20229;-79
2022/06/23 03:07:59;;;;;;;14.27;11.70;;;;;;;21.40;61.49;97657.31;8414944;28;20301;-79
2022/06/23 03:12:07;;;;;;;12.80;11.37;;;;;;;21.28;61.29;97648.75;8414992;28;20228;-79
2022/06/23 03:16:15;;;;;;;15.43;11.63;;;;;;;21.27;61.32;97656.78;8415071;28;20222;-79
2022/06/23 03:20:34;;;;;;;14.33;11.13;;;;;;;21.33;61.34;97663.28;8414804;28;20235;-79
2022/06/23 03:24:42;;;;;;;16.07;11.27;;;;;;;21.17;61.11;97667.34;8414476;28;20245;-79
2022/06/23 03:28:50;;;;;;;13.37;10.83;;;;;;;21.24;60.99;97667.59;8414805;28;20230;-79
2022/06/23 03:32:55;;;;;;;13.07;11.43;;;;;;;21.27;61.44;97678.69;8414628;28;20234;-79
2022/06/23 03:37:01;;;;;;;11.50;10.27;;;;;;;21.25;60.13;97674.53;8414300;28;20230;-79
2022/06/23 03:45:29;;;;;;;14.30;9.87;;;;;;;21.21;60.30;97687.16;8413548;28;20235;-79
2022/06/23 03:49:48;;;;;;;15.63;10.80;;;;;;;21.27;60.82;97689.22;8413898;28;20230;-79
2022/06/23 03:53:55;;;;;;;17.17;11.20;;;;;;;21.33;60.99;97698.34;8414210;28;20229;-79
2022/06/23 03:58:01;;;;;;;15.33;12.97;;;;;;;21.19;62.30;97696.16;8414068;28;20233;-79
2022/06/23 04:02:12;;;;;;;15.80;13.60;;;;;;;21.27;62.13;97698.94;8414165;28;20251;-79
2022/06/23 04:06:22;;;;;;;14.33;12.20;;;;;;;21.40;62.17;97703.88;8414164;28;20242;-80
2022/06/23 04:10:29;;;;;;;14.50;12.80;;;;;;;21.36;62.82;97705.97;8413542;28;20233;-79
2022/06/23 04:14:49;;;;;;;20.40;12.43;;;;;;;21.37;62.04;97707.63;8413548;28;20303;-80
2022/06/23 04:18:59;;;;;;;16.23;12.00;;;;;;;21.36;60.93;97702.50;8412401;28;20241;-80
2022/06/23 04:23:03;;;;;;;14.77;12.37;;;;;;;21.42;62.14;97704.56;8413234;28;20415;-80
2022/06/23 04:27:13;;;;;;;26.10;14.60;;;;;;;21.46;62.66;97709.44;8413329;28;20421;-80
2022/06/23 04:31:19;;;;;;;16.53;13.93;;;;;;;21.52;62.82;97723.84;8412991;28;20299;-80
2022/06/23 04:35:26;;;;;;;17.37;12.67;;;;;;;21.59;61.81;97727.56;8412544;28;20237;-78
2022/06/23 04:39:33;;;;;;;15.37;12.30;;;;;;;21.64;60.83;97720.03;8413228;28;20236;-78
2022/06/23 04:43:38;;;;;;;15.57;12.47;;;;;;;21.63;60.85;97739.47;8413174;28;20231;-78
2022/06/23 04:47:41;;;;;;;19.03;12.63;;;;;;;21.63;61.15;97728.94;8412652;28;20239;-81
2022/06/23 04:51:51;;;;;;;17.03;13.03;;;;;;;21.68;61.60;97731.13;8412835;28;20225;-81
2022/06/23 04:56:06;;;;;;;17.50;13.37;;;;;;;21.81;61.65;97744.81;8412840;28;20223;-81
2022/06/23 05:00:21;;;;;;;16.77;13.70;;;;;;;21.88;62.31;97753.00;8412756;28;20245;-78
2022/06/23 05:04:27;;;;;;;17.37;13.20;;;;;;;22.00;62.35;97751.81;8412614;28;20435;-79
2022/06/23 05:08:33;;;;;;;21.37;13.57;;;;;;;22.01;62.14;97740.31;8412472;28;20253;-80
2022/06/23 05:12:39;;;;;;;16.10;13.23;;;;;;;22.14;62.23;97739.13;8378156;28;20337;-79
2022/06/23 05:16:45;;;;;;;17.03;13.37;;;;;;;22.23;61.92;97747.00;8413004;28;20268;-79
2022/06/23 05:20:54;;;;;;;15.43;13.73;;;;;;;22.16;63.18;97743.31;8394518;28;20242;-79
2022/06/23 05:25:31;;;;;;;16.47;13.13;;;;;;;22.35;62.13;97736.28;8412308;28;20317;-79
2022/06/23 05:29:38;;;;;;;16.50;12.20;;;;;;;22.35;63.09;97741.53;8412056;28;20432;-78
2022/06/23 05:33:46;;;;;;;23.23;12.83;;;;;;;22.57;61.74;97742.94;8417600;28;22542;-78
2022/06/23 05:37:52;;;;;;;20.07;13.23;;;;;;;22.62;62.18;97752.09;8418111;28;20233;-80
2022/06/23 05:41:59;;;;;;;16.83;12.27;;;;;;;22.74;61.33;97752.69;8417918;28;20226;-80
2022/06/23 05:46:04;;;;;;;18.33;12.63;;;;;;;22.74;62.43;97757.16;8417953;28;20417;-80
2022/06/23 05:50:12;;;;;;;18.40;11.07;;;;;;;22.95;61.86;97757.66;8417396;28;20242;-80
2022/06/23 05:54:19;;;;;;;19.17;9.77;;;;;;;23.00;62.53;97749.31;8417403;28;20234;-80
2022/06/23 05:58:30;;;;;;;15.53;8.03;;;;;;;23.19;60.58;97746.53;8416622;28;20349;-77
2022/06/23 06:02:37;;;;;;;18.37;11.13;;;;;;;23.18;62.61;97746.66;8417151;28;20569;-80
2022/06/23 06:06:40;;;;;;;15.03;9.80;;;;;;;23.38;62.27;97752.59;8417182;28;20254;-80
2022/06/23 06:10:44;;;;;;;19.70;7.17;;;;;;;23.56;60.23;97757.84;8416940;28;20223;-80
2022/06/23 06:14:50;;;;;;;14.57;7.00;;;;;;;23.45;60.64;97760.75;8417107;28;20231;-80
2022/06/23 06:18:53;;;;;;;14.10;9.00;;;;;;;23.16;61.97;97754.75;8416619;28;20417;-78
2022/06/23 06:23:01;;;;;;;11.10;8.03;;;;;;;23.38;61.64;97755.22;8416591;28;20397;-78
2022/06/23 06:27:04;;;;;;;9.90;5.83;;;;;;;23.64;60.11;97751.78;8415904;28;20236;-79
2022/06/23 06:31:15;;;;;;;19.57;7.60;;;;;;;23.74;59.81;97757.78;8415985;28;20401;-79
2022/06/23 06:35:26;;;;;;;13.53;5.47;;;;;;;23.70;58.41;97756.44;8416167;28;20231;-80
2022/06/23 06:39:32;;;;;;;11.73;5.80;;;;;;;23.96;58.48;97756.44;8415313;28;20388;-79
2022/06/23 06:43:35;;;;;;;9.87;5.30;;;;;;;24.24;58.10;97757.06;8415109;28;20230;-80
2022/06/23 06:47:41;;;;;;;11.77;6.00;;;;;;;24.29;57.06;97756.59;8415520;28;20436;-80
2022/06/23 06:51:45;;;;;;;10.03;4.37;;;;;;;24.56;55.67;97761.66;8415340;28;20233;-79
2022/06/23 06:55:52;;;;;;;8.57;5.07;;;;;;;24.63;56.19;97755.72;8415110;28;20227;-79
2022/06/23 07:00:00;;;;;;;9.30;3.77;;;;;;;24.70;54.70;97754.09;8415328;28;20239;-79
2022/06/23 07:04:05;;;;;;;8.60;3.77;;;;;;;24.51;54.92;97757.81;8415593;28;20235;-80
2022/06/23 07:08:11;;;;;;;14.53;3.50;;;;;;;24.83;54.28;97750.94;8414863;28;20252;-80
2022/06/23 07:12:18;;;;;;;11.00;4.30;;;;;;;25.25;53.38;97752.69;8414602;28;20275;-80
2022/06/23 07:16:25;;;;;;;8.50;3.30;;;;;;;25.34;52.28;97756.94;8414771;28;20547;-80
2022/06/23 07:20:35;;;;;;;9.57;2.73;;;;;;;25.50;50.63;97754.31;8413992;28;20440;-80
2022/06/23 07:24:44;;;;;;;11.13;3.07;;;;;;;25.70;50.89;97751.28;8414147;28;20239;-77
2022/06/23 07:28:50;;;;;;;7.77;3.07;;;;;;;25.01;52.36;97750.81;8414108;28;20230;-76
2022/06/23 07:32:57;;;;;;;9.23;3.17;;;;;;;25.36;50.93;97744.41;8414152;28;20408;-79
2022/06/23 07:37:07;;;;;;;11.93;3.20;;;;;;;25.67;50.25;97741.84;8388411;28;20294;-79
2022/06/23 07:41:13;;;;;;;12.97;3.73;;;;;;;25.70;48.73;97745.97;8397058;28;20539;-77
2022/06/23 07:45:19;;;;;;;10.40;2.93;;;;;;;26.04;48.62;97740.41;8413996;28;20241;-79
2022/06/23 07:49:21;;;;;;;10.37;2.67;;;;;;;26.33;47.76;97741.63;8413561;28;20234;-79
2022/06/23 07:53:28;;;;;;;10.83;2.60;;;;;;;26.32;47.44;97742.63;8412631;28;20237;-79
2022/06/23 07:57:33;;;;;;;11.90;3.27;;;;;;;26.31;47.35;97735.66;8413818;28;20407;-81
2022/06/23 08:01:40;;;;;;;8.60;2.60;;;;;;;27.02;45.94;97738.25;8413686;28;20547;-81
2022/06/23 08:05:45;;;;;;;12.97;3.13;;;;;;;26.60;46.21;97736.84;8413305;28;20234;-80
2022/06/23 08:09:52;;;;;;;10.00;3.40;;;;;;;26.94;45.52;97741.81;8413279;28;20247;-80
2022/06/23 08:13:58;;;;;;;9.53;2.87;;;;;;;26.58;45.79;97739.69;8413346;28;20411;-80
2022/06/23 08:18:02;;;;;;;9.27;3.10;;;;;;;27.05;44.69;97736.03;8413207;28;20235;-80
2022/06/23 08:22:17;;;;;;;6.67;2.67;;;;;;;27.55;42.96;97730.31;8413320;28;20281;-79
2022/06/23 08:26:22;;;;;;;9.50;2.83;;;;;;;27.13;43.64;97737.84;8412841;28;20232;-80
2022/06/23 08:30:26;;;;;;;8.27;3.00;;;;;;;27.61;42.37;97732.28;8412675;28;20229;-78
2022/06/23 08:34:30;;;;;;;7.80;2.90;;;;;;;28.04;42.09;97732.47;8413245;28;20232;-79
2022/06/23 08:38:36;;;;;;;8.27;2.80;;;;;;;27.87;41.55;97735.31;8412890;28;20232;-81
2022/06/23 08:42:46;;;;;;;12.43;3.33;;;;;;;28.16;41.18;97732.81;8412944;28;20225;-81
2022/06/23 08:46:55;;;;;;;12.43;3.60;;;;;;;28.35;40.62;97726.09;8412955;28;20239;-88
2022/06/23 08:51:02;;;;;;;10.17;3.27;;;;;;;28.45;40.40;97730.09;8413602;28;20229;-80
2022/06/23 08:55:09;;;;;;;7.20;3.30;;;;;;;29.02;39.22;97722.31;8412847;28;20226;-78
2022/06/23 08:59:38;;;;;;;6.90;2.70;;;;;;;29.33;37.64;97713.16;8412325;28;20515;-78
2022/06/23 09:03:47;;;;;;;8.60;2.77;;;;;;;29.44;38.26;97717.94;8412865;28;20242;-78
2022/06/23 09:07:54;;;;;;;8.53;3.20;;;;;;;28.84;38.93;97712.94;8417199;28;20229;-78
2022/06/23 09:12:07;;;;;;;9.43;3.30;;;;;;;28.63;39.05;97719.06;8419077;28;20229;-79
2022/06/23 09:16:22;;;;;;;7.67;3.00;;;;;;;28.99;38.61;97720.84;8419364;28;20230;-79
2022/06/23 09:20:46;;;;;;;8.00;2.80;;;;;;;29.05;38.62;97721.91;8418139;28;20237;-79
2022/06/23 09:25:16;;;;;;;8.60;3.43;;;;;;;28.93;37.40;97716.28;8418204;28;20433;-80
2022/06/23 09:29:23;;;;;;;7.77;2.70;;;;;;;29.31;38.42;97716.00;8418233;28;20233;-79
2022/06/23 09:33:37;;;;;;;8.57;3.03;;;;;;;29.28;37.65;97708.38;8418049;28;20231;-79
2022/06/23 09:38:05;;;;;;;7.63;3.03;;;;;;;28.82;38.51;97701.59;8418074;28;20438;-79
2022/06/23 09:42:30;;;;;;;8.17;2.90;;;;;;;29.93;37.10;97698.38;8418160;28;20407;-79
2022/06/23 09:46:54;;;;;;;8.80;3.07;;;;;;;29.91;36.95;97702.25;8417521;28;20254;-78
2022/06/23 09:51:22;;;;;;;5.07;2.40;;;;;;;30.33;36.15;97697.72;8417743;28;20230;-78
2022/06/23 09:55:45;;;;;;;7.33;2.63;;;;;;;30.45;36.04;97697.97;8417221;28;20379;-78
2022/06/23 10:00:04;;;;;;;8.73;2.47;;;;;;;30.56;35.57;97684.84;8417731;28;20252;-78
2022/06/23 10:04:22;;;;;;;4.00;2.30;;;;;;;30.93;35.08;97676.47;8415587;28;20230;-78
2022/06/23 10:08:39;;;;;;;5.20;2.47;;;;;;;29.54;37.12;97675.75;8416760;28;20233;-77
2022/06/23 10:13:00;;;;;;;6.40;2.70;;;;;;;29.44;37.18;97683.28;8417246;28;20245;-78
2022/06/23 10:17:23;;;;;;;7.63;2.40;;;;;;;30.35;35.55;97679.66;8386424;28;20443;-79
2022/06/23 10:21:38;;;;;;;5.07;2.40;;;;;;;29.64;37.58;97683.38;8372484;28;20487;-80
2022/06/23 10:25:58;;;;;;;6.37;2.43;;;;;;;30.21;36.31;97678.75;8383830;28;20237;-81
2022/06/23 10:30:19;;;;;;;10.47;2.57;;;;;;;30.83;34.59;97668.03;8383454;28;20233;-80
2022/06/23 10:34:48;;;;;;;5.80;2.40;;;;;;;30.47;36.12;97667.34;8383647;28;20405;-81
2022/06/23 10:39:00;;;;;;;5.97;2.70;;;;;;;30.35;35.35;97667.13;8383578;28;20238;-82
2022/06/23 10:43:21;;;;;;;5.67;2.30;;;;;;;30.25;36.17;97671.16;8415022;28;20229;-82
2022/06/23 10:47:42;;;;;;;8.43;2.40;;;;;;;31.19;34.32;97664.97;8415759;28;20245;-81
2022/06/23 10:51:58;;;;;;;8.97;2.50;;;;;;;30.44;34.60;97664.25;8416331;28;20237;-79
2022/06/23 10:56:10;;;;;;;7.23;2.13;;;;;;;30.04;34.65;97656.09;8416073;28;20233;-79
2022/06/23 11:00:17;;;;;;;6.57;2.30;;;;;;;30.20;35.72;97653.09;8415892;28;20229;-80
2022/06/23 11:04:47;;;;;;;7.27;2.30;;;;;;;30.92;34.23;97638.25;8415468;28;20252;-79
2022/06/23 11:09:03;;;;;;;9.83;2.43;;;;;;;30.89;33.21;97633.25;8415079;28;20243;-79
2022/06/23 11:13:23;;;;;;;8.07;2.23;;;;;;;30.59;34.24;97632.84;8415431;28;20231;-78
2022/06/23 11:17:34;;;;;;;5.37;2.20;;;;;;;29.67;35.82;97637.66;8414799;28;20244;-78
2022/06/23 11:21:51;;;;;;;9.43;2.63;;;;;;;30.30;35.22;97632.16;8411453;28;20237;-78
2022/06/23 11:25:57;;;;;;;10.13;2.33;;;;;;;29.75;35.61;97631.34;8384638;28;20230;-78
2022/06/23 11:30:15;;;;;;;11.77;2.70;;;;;;;28.92;38.13;97623.19;8381804;28;20416;-78
2022/06/23 11:34:42;;;;;;;4.60;2.00;;;;;;;29.01;37.73;97622.84;8381923;28;20234;-78
2022/06/23 11:39:10;;;;;;;6.17;2.37;;;;;;;30.36;35.17;97609.19;8381174;28;20225;-78
2022/06/23 11:43:19;;;;;;;7.00;2.10;;;;;;;30.06;34.74;97601.47;8380949;28;20522;-78
2022/06/23 11:47:36;;;;;;;5.43;1.70;;;;;;;29.83;35.24;97604.47;8381031;28;20292;-78
2022/06/23 11:51:55;;;;;;;5.93;1.90;;;;;;;30.19;34.45;97595.34;8381607;28;20418;-78
2022/06/23 11:56:00;;;;;;;5.07;1.53;;;;;;;30.51;33.13;97593.78;8381438;28;20237;-78
2022/06/23 12:00:05;;;;;;;4.27;1.73;;;;;;;30.86;33.33;97596.25;8381421;28;20418;-78
2022/06/23 12:04:52;;;;;;;8.27;2.07;;;;;;;31.11;33.36;97593.78;8380650;28;20249;-78
2022/06/23 12:09:01;;;;;;;8.87;2.43;;;;;;;31.33;33.32;97588.19;8375330;28;20260;-78
2022/06/23 12:13:04;;;;;;;5.53;1.60;;;;;;;30.42;34.91;97586.19;8381041;28;20225;-79
2022/06/23 12:17:12;;;;;;;7.23;1.97;;;;;;;30.71;34.44;97575.09;8381053;28;20225;-78
2022/06/23 12:21:25;;;;;;;7.17;2.30;;;;;;;31.32;33.54;97574.00;8380580;28;20232;-78
2022/06/23 12:25:37;;;;;;;6.23;2.00;;;;;;;31.88;32.55;97567.19;8380495;28;20229;-78
2022/06/23 12:29:44;;;;;;;7.17;2.00;;;;;;;30.85;33.22;97562.53;8380605;28;20228;-78
2022/06/23 12:33:56;;;;;;;9.43;1.90;;;;;;;31.47;32.59;97557.72;8380293;28;20246;-79
2022/06/23 12:38:05;;;;;;;9.77;2.00;;;;;;;32.09;31.17;97554.56;8380700;28;20404;-78
2022/06/23 12:42:13;;;;;;;8.17;2.10;;;;;;;31.87;31.14;97551.34;8409052;28;20239;-79
2022/06/23 12:46:23;;;;;;;4.67;1.70;;;;;;;31.40;31.02;97543.53;8420448;28;20237;-79
2022/06/23 12:50:44;;;;;;;8.67;1.60;;;;;;;32.16;30.21;97536.59;8419908;28;20243;-78
2022/06/23 12:55:06;;;;;;;6.50;1.67;;;;;;;31.38;30.93;97543.72;8420320;28;20253;-79
2022/06/23 12:59:18;;;;;;;8.33;2.03;;;;;;;31.41;32.25;97538.97;8420087;28;20295;-78
2022/06/23 13:03:26;;;;;;;8.27;2.13;;;;;;;31.67;31.80;97532.72;8419926;28;20238;-78
2022/06/23 13:07:35;;;;;;;7.00;1.70;;;;;;;32.42;30.51;97518.66;8419183;28;20246;-77
2022/06/23 13:11:44;;;;;;;7.07;2.33;;;;;;;31.94;30.41;97517.34;8419569;28;20233;-78
2022/06/23 13:15:53;;;;;;;13.77;2.00;;;;;;;32.38;30.64;97512.09;8419379;28;20232;-78
2022/06/23 13:19:59;;;;;;;7.90;2.60;;;;;;;31.04;33.17;97517.31;8419189;28;20233;-77
2022/06/23 13:24:13;;;;;;;10.23;2.83;;;;;;;31.42;32.60;97512.03;8419451;28;20224;-76
2022/06/23 13:28:27;;;;;;;8.67;2.67;;;;;;;32.00;31.69;97504.94;8419101;28;20259;-77
2022/06/23 13:32:36;;;;;;;8.07;3.03;;;;;;;31.70;31.80;97501.00;8418424;28;20224;-77
2022/06/23 13:36:42;;;;;;;9.80;2.93;;;;;;;31.36;32.43;97494.97;8418920;28;20239;-77
2022/06/23 13:40:49;;;;;;;9.87;2.90;;;;;;;31.48;32.68;97486.31;8418749;28;20227;-77
2022/06/23 13:44:57;;;;;;;6.83;2.40;;;;;;;31.50;32.19;97484.22;8418349;28;20301;-78
2022/06/23 13:49:07;;;;;;;9.50;2.43;;;;;;;31.02;33.26;97476.59;8418262;28;20229;-78
2022/06/23 13:53:15;;;;;;;7.77;2.40;;;;;;;30.74;33.67;97488.34;8418530;28;20528;-77
2022/06/23 13:57:23;;;;;;;6.00;2.10;;;;;;;31.20;33.03;97481.25;8418261;28;20237;-81
2022/06/23 14:01:36;;;;;;;8.97;2.47;;;;;;;30.56;33.55;97479.13;8417818;28;20226;-79
2022/06/23 14:05:43;;;;;;;8.23;2.80;;;;;;;31.18;33.26;97476.91;8417906;28;20295;-82
2022/06/23 14:09:49;;;;;;;5.17;2.40;;;;;;;30.48;33.84;97465.13;8417960;28;20233;-80
2022/06/23 14:13:57;;;;;;;6.57;2.50;;;;;;;30.63;33.98;97462.25;8416891;28;20418;-77
2022/06/23 14:18:02;;;;;;;6.63;2.37;;;;;;;30.17;33.89;97451.34;8417555;28;20241;-77
2022/06/23 14:22:15;;;;;;;7.63;2.60;;;;;;;30.94;33.53;97456.25;8417371;28;20223;-77
2022/06/23 14:26:22;;;;;;;8.97;2.30;;;;;;;30.95;32.89;97442.66;8417300;28;20232;-77
2022/06/23 14:30:28;;;;;;;10.67;2.10;;;;;;;31.02;31.95;97441.84;8416611;28;20245;-77
2022/06/23 14:34:33;;;;;;;6.83;2.10;;;;;;;31.36;31.41;97438.78;8416996;28;20235;-79
2022/06/23 14:38:45;;;;;;;9.07;2.37;;;;;;;31.36;31.88;97428.09;8416965;28;20238;-79
2022/06/23 14:43:07;;;;;;;6.17;1.90;;;;;;;31.25;31.76;97420.75;8416708;28;20233;-78
2022/06/23 14:47:25;;;;;;;8.33;2.17;;;;;;;31.19;31.67;97405.56;8416601;28;20570;-78
2022/06/23 14:51:34;;;;;;;9.90;2.40;;;;;;;31.17;32.18;97404.94;8415920;28;20249;-77
2022/06/23 14:55:44;;;;;;;8.40;2.57;;;;;;;31.33;32.26;97400.94;8416388;28;20236;-76
2022/06/23 14:59:52;;;;;;;5.73;2.37;;;;;;;31.56;32.18;97392.41;8416381;28;20372;-77
2022/06/23 15:04:01;;;;;;;11.57;2.47;;;;;;;31.04;32.07;97397.00;8415603;28;20230;-78
2022/06/23 15:08:08;;;;;;;7.43;2.20;;;;;;;31.27;31.35;97397.28;8415523;28;20233;-77
2022/06/23 15:12:19;;;;;;;12.27;2.10;;;;;;;31.31;31.94;97393.13;8415794;28;20541;-77
2022/06/23 15:16:27;;;;;;;6.43;2.20;;;;;;;31.22;31.77;97383.72;8415452;28;20336;-77
2022/06/23 15:20:38;;;;;;;6.43;1.97;;;;;;;31.40;31.42;97376.81;8415295;28;20230;-77
2022/06/23 15:24:49;;;;;;;5.37;1.90;;;;;;;31.22;31.79;97365.00;8415629;28;20242;-77
2022/06/23 15:28:58;;;;;;;6.50;2.27;;;;;;;31.26;31.60;97371.53;8415283;28;20238;-77
2022/06/23 15:33:10;;;;;;;5.63;2.00;;;;;;;31.17;31.66;97365.66;8415441;28;20229;-78
2022/06/23 15:37:19;;;;;;;8.97;2.00;;;;;;;31.36;31.48;97363.91;8415138;28;20233;-78
2022/06/23 15:41:30;;;;;;;4.60;2.10;;;;;;;31.24;31.27;97349.53;8414492;28;20349;-77
2022/06/23 15:45:57;;;;;;;8.90;2.60;;;;;;;31.26;30.98;97349.34;8414993;28;20417;-78
2022/06/23 15:50:04;;;;;;;5.90;2.30;;;;;;;31.27;31.45;97351.81;8414824;28;20227;-77
2022/06/23 15:54:15;;;;;;;8.03;2.40;;;;;;;31.30;31.70;97338.00;8385267;28;20337;-78
2022/06/23 15:58:21;;;;;;;6.17;2.13;;;;;;;31.20;32.00;97345.66;8381207;28;20234;-77
2022/06/23 16:02:33;;;;;;;6.47;2.03;;;;;;;31.12;32.04;97340.59;8381420;28;20235;-80
2022/06/23 16:06:38;;;;;;;5.97;2.30;;;;;;;30.68;33.10;97344.88;8381334;28;20400;-76
2022/06/23 16:10:59;;;;;;;5.70;2.20;;;;;;;30.61;33.03;97344.88;8381050;28;20233;-76
2022/06/23 16:15:04;;;;;;;6.23;2.17;;;;;;;30.92;32.74;97338.84;8380422;28;20630;-77
2022/06/23 16:19:13;;;;;;;7.77;2.30;;;;;;;30.74;32.90;97336.81;8386034;28;20234;-77
2022/06/23 16:23:18;;;;;;;5.80;2.13;;;;;;;30.78;33.00;97327.34;8413995;28;20238;-76
2022/06/23 16:27:28;;;;;;;9.93;2.53;;;;;;;30.51;33.84;97331.16;8414038;28;20408;-77
2022/06/23 16:31:38;;;;;;;7.40;2.20;;;;;;;30.16;33.85;97324.25;8413462;28;20292;-77
2022/06/23 16:35:45;;;;;;;5.90;1.93;;;;;;;30.29;33.78;97333.25;8414026;28;20300;-77
2022/06/23 16:39:52;;;;;;;8.83;2.17;;;;;;;29.94;33.95;97318.31;8413884;28;20228;-77
2022/06/23 16:43:58;;;;;;;7.17;2.70;;;;;;;29.76;34.28;97318.16;8413800;28;20229;-78
2022/06/23 16:48:06;;;;;;;4.57;2.40;;;;;;;29.68;34.69;97315.63;8413933;28;20232;-77
2022/06/23 16:52:14;;;;;;;6.13;2.70;;;;;;;29.98;34.40;97314.19;8413343;28;20223;-78
2022/06/23 16:56:23;;;;;;;6.07;2.60;;;;;;;30.10;33.90;97310.91;8413755;28;20238;-78
2022/06/23 17:00:39;;;;;;;8.20;2.30;;;;;;;30.13;33.78;97315.84;8396015;28;20235;-77
2022/06/23 17:04:48;;;;;;;5.83;2.23;;;;;;;30.16;33.50;97307.41;8380509;28;20230;-76
2022/06/23 17:08:59;;;;;;;6.60;1.90;;;;;;;30.13;33.64;97308.63;8380136;28;20243;-77
2022/06/23 17:13:07;;;;;;;8.67;1.77;;;;;;;29.89;33.34;97306.63;8380182;28;20229;-77
2022/06/23 17:17:14;;;;;;;5.57;1.90;;;;;;;29.89;33.51;97304.78;8379953;28;20233;-77
2022/06/23 17:21:20;;;;;;;7.23;2.10;;;;;;;29.73;34.09;97306.03;8379873;28;20392;-78
2022/06/23 17:25:29;;;;;;;13.67;2.37;;;;;;;29.56;34.04;97308.25;8379019;28;20241;-76
2022/06/23 17:29:40;;;;;;;4.23;1.93;;;;;;;29.73;34.08;97311.34;8385620;28;20238;-82
2022/06/23 17:33:45;;;;;;;4.47;2.00;;;;;;;29.90;34.20;97302.94;8399658;28;20234;-85
2022/06/23 17:37:53;;;;;;;7.97;2.17;;;;;;;29.88;33.87;97303.13;8418929;28;20224;-85
2022/06/23 17:46:27;;;;;;;3.43;1.87;;;;;;;29.32;34.24;97298.19;8418642;28;20549;-84
2022/06/23 17:50:32;;;;;;;3.73;1.70;;;;;;;29.36;33.68;97297.59;8417933;28;20229;-83
2022/06/23 17:54:36;;;;;;;3.83;1.57;;;;;;;29.39;34.45;97299.00;8418285;28;20459;-83
2022/06/23 17:58:46;;;;;;;2.63;1.53;;;;;;;29.42;33.93;97288.75;8418483;28;20653;-84
2022/06/23 18:02:53;;;;;;;8.23;1.60;;;;;;;29.40;34.38;97290.00;8418312;28;20227;-84
2022/06/23 18:06:56;;;;;;;5.97;1.77;;;;;;;29.23;35.00;97292.25;8417996;28;20241;-83
2022/06/23 18:11:01;;;;;;;3.73;1.70;;;;;;;29.15;34.50;97295.91;8418050;28;20231;-83
2022/06/23 18:15:16;;;;;;;6.37;1.70;;;;;;;29.22;34.57;97288.72;8417736;28;20237;-84
2022/06/23 18:19:22;;;;;;;5.30;1.93;;;;;;;29.22;34.53;97283.41;8417882;28;20235;-83
2022/06/23 18:23:27;;;;;;;3.53;1.60;;;;;;;29.14;34.84;97294.25;8417170;28;20409;-84
2022/06/23 18:27:36;;;;;;;4.90;2.03;;;;;;;29.14;34.46;97285.44;8417651;28;20231;-84
2022/06/23 18:31:45;;;;;;;6.30;2.00;;;;;;;29.04;35.16;97291.97;8417024;28;20244;-84
2022/06/23 18:35:52;;;;;;;5.73;2.10;;;;;;;28.98;35.05;97286.63;8416744;28;20544;-82
2022/06/23 18:39:58;;;;;;;7.83;2.40;;;;;;;28.96;35.40;97281.50;8415838;28;20234;-83
2022/06/23 18:44:09;;;;;;;6.53;2.03;;;;;;;28.83;34.75;97284.94;8416467;28;20231;-81
2022/06/23 18:48:18;;;;;;;5.23;1.97;;;;;;;28.95;34.63;97285.16;8416435;28;20233;-77
2022/06/23 18:52:22;;;;;;;3.77;2.10;;;;;;;28.68;34.49;97275.47;8416237;28;20241;-80
2022/06/23 18:56:37;;;;;;;4.77;2.07;;;;;;;28.71;34.40;97269.72;8415983;28;20230;-77
2022/06/23 19:00:44;;;;;;;4.83;2.37;;;;;;;28.55;34.41;97265.59;8416062;28;20240;-77
2022/06/23 19:04:55;;;;;;;4.57;1.97;;;;;;;28.36;34.18;97270.59;8415827;28;20229;-77
2022/06/23 19:09:00;;;;;;;9.70;2.20;;;;;;;28.50;34.02;97270.66;8415706;28;20242;-78
2022/06/23 19:13:14;;;;;;;2.73;1.53;;;;;;;28.45;34.40;97277.41;8415497;28;20227;-78
2022/06/23 19:17:29;;;;;;;3.37;1.90;;;;;;;28.36;34.56;97285.75;8415351;28;20237;-78
2022/06/23 19:21:44;;;;;;;6.47;2.27;;;;;;;28.35;34.45;97278.78;8415148;28;20533;-78
2022/06/23 19:25:51;;;;;;;4.63;2.17;;;;;;;28.33;34.75;97281.66;8415043;28;20244;-78
2022/06/23 19:30:01;;;;;;;7.77;2.40;;;;;;;28.28;34.64;97290.22;8415023;28;20516;-78
2022/06/23 19:34:19;;;;;;;4.60;2.23;;;;;;;28.24;34.92;97278.34;8401165;28;20233;-76
2022/06/23 19:38:37;;;;;;;7.47;2.57;;;;;;;28.18;35.53;97284.44;8381166;28;20299;-77
2022/06/23 19:42:47;;;;;;;9.17;2.80;;;;;;;28.09;35.57;97296.28;8381781;28;20232;-77
2022/06/23 19:46:52;;;;;;;6.43;2.37;;;;;;;28.11;35.78;97288.09;8381669;28;20223;-77